Time;durP1;ratioP1;P1;durP2;ratioP2;P2;SDS_P1;SDS_P2;PMS_P1;PMS_P2;Temp;Humidity;BMP_temperature;BMP_pressure;BME280_temperature;BME280_humidity;BME280_pressure;Samples;Min_cycle;Max_cycle;Signal;HPM_P1;HPM_P2
2023/02/07 00:01:10;;;;;;;5.68;3.97;;;;;;;-4.22;58.75;97729.03;5073030;28;20084;-62
2023/02/07 00:03:38;;;;;;;4.35;3.17;;;;;;;-4.22;59.33;97734.16;5073044;28;20494;-61
2023/02/07 00:06:07;;;;;;;6.50;4.03;;;;;;;-4.18;59.85;97734.34;5073038;28;20048;-62
2023/02/07 00:08:35;;;;;;;6.13;3.80;;;;;;;-4.20;59.53;97722.31;5073006;28;20494;-63
2023/02/07 00:11:05;;;;;;;5.40;3.75;;;;;;;-4.28;59.88;97726.25;5073097;28;20048;-60
2023/02/07 00:13:33;;;;;;;5.55;3.80;;;;;;;-4.20;60.21;97724.88;5072781;28;20044;-62
2023/02/07 00:16:00;;;;;;;7.35;4.63;;;;;;;-4.18;60.12;97733.50;5072857;28;20056;-62
2023/02/07 00:18:27;;;;;;;6.28;3.72;;;;;;;-4.11;60.64;97724.34;5072845;28;20131;-61
2023/02/07 00:21:01;;;;;;;7.82;4.55;;;;;;;-4.13;60.65;97721.75;5072857;28;20395;-62
2023/02/07 00:23:29;;;;;;;8.13;4.10;;;;;;;-4.14;60.41;97720.00;5072896;28;20103;-62
2023/02/07 00:25:59;;;;;;;6.32;4.13;;;;;;;-4.18;60.78;97729.22;5073695;28;20094;-61
2023/02/07 00:28:26;;;;;;;6.47;4.47;;;;;;;-4.14;60.86;97726.78;5076875;28;20051;-63
2023/02/07 00:31:04;;;;;;;6.75;4.45;;;;;;;-4.16;60.60;97728.44;5076757;28;20143;-62
2023/02/07 00:33:31;;;;;;;6.45;4.32;;;;;;;-4.22;60.74;97731.59;5076758;28;20071;-62
2023/02/07 00:35:58;;;;;;;7.53;4.20;;;;;;;-4.31;60.77;97733.00;5076705;28;20084;-62
2023/02/07 00:38:26;;;;;;;8.13;4.90;;;;;;;-4.26;61.00;97735.72;5076822;28;20076;-62
2023/02/07 00:40:53;;;;;;;8.60;5.07;;;;;;;-4.25;61.24;97742.56;5076602;28;20564;-62
2023/02/07 00:43:21;;;;;;;8.77;5.15;;;;;;;-4.26;61.24;97740.84;5076592;28;20083;-62
2023/02/07 00:45:49;;;;;;;9.05;5.05;;;;;;;-4.17;61.05;97748.00;5076460;28;20094;-61
2023/02/07 00:48:15;;;;;;;9.52;5.07;;;;;;;-4.14;61.01;97747.25;5076552;28;20072;-62
2023/02/07 00:50:43;;;;;;;7.00;4.95;;;;;;;-4.14;61.12;97748.13;5076444;28;20439;-61
2023/02/07 00:53:10;;;;;;;7.88;4.40;;;;;;;-4.14;61.11;97753.25;5076437;28;20498;-61
2023/02/07 00:55:37;;;;;;;8.73;4.85;;;;;;;-4.14;61.25;97754.91;5076344;28;20052;-62
2023/02/07 00:58:04;;;;;;;6.95;4.38;;;;;;;-4.15;61.44;97755.72;5076374;28;20087;-62
2023/02/07 01:00:33;;;;;;;7.93;4.28;;;;;;;-4.19;61.74;97752.16;5076252;28;20087;-61
2023/02/07 01:03:00;;;;;;;7.57;4.72;;;;;;;-4.15;61.41;97745.50;5076230;28;20080;-62
2023/02/07 01:05:27;;;;;;;9.35;5.28;;;;;;;-4.15;61.96;97750.63;5076234;28;20098;-62
2023/02/07 01:07:54;;;;;;;8.25;4.70;;;;;;;-4.17;61.38;97745.44;5076121;28;20094;-61
2023/02/07 01:10:23;;;;;;;7.63;4.68;;;;;;;-4.09;61.39;97750.88;5076063;28;20055;-63
2023/02/07 01:12:50;;;;;;;7.03;4.57;;;;;;;-4.09;61.38;97741.50;5075979;28;20079;-62
2023/02/07 01:15:18;;;;;;;6.45;4.50;;;;;;;-4.12;61.54;97738.81;5075948;28;20059;-61
2023/02/07 01:17:46;;;;;;;5.95;4.22;;;;;;;-4.16;60.97;97736.94;5075986;28;20557;-61
2023/02/07 01:20:15;;;;;;;6.38;4.40;;;;;;;-4.09;60.87;97733.81;5075826;28;20498;-60
2023/02/07 01:22:42;;;;;;;5.82;3.95;;;;;;;-4.07;61.05;97745.00;5075885;28;20045;-62
2023/02/07 01:25:09;;;;;;;5.78;3.55;;;;;;;-4.13;60.39;97739.63;5075843;28;20494;-61
2023/02/07 01:27:37;;;;;;;6.90;3.80;;;;;;;-4.19;60.84;97734.28;5076055;28;20044;-61
2023/02/07 01:30:06;;;;;;;8.73;4.70;;;;;;;-4.17;60.94;97737.78;5075676;28;20058;-61
2023/02/07 01:32:33;;;;;;;7.05;3.72;;;;;;;-4.20;61.33;97735.97;5075735;28;20059;-62
2023/02/07 01:35:02;;;;;;;6.93;4.22;;;;;;;-4.22;61.62;97734.16;5075579;28;20407;-62
2023/02/07 01:37:29;;;;;;;5.50;3.83;;;;;;;-4.25;61.06;97739.16;5075264;28;20045;-62
2023/02/07 01:39:56;;;;;;;7.05;4.32;;;;;;;-4.27;61.43;97733.13;5075558;28;20084;-61
2023/02/07 01:42:26;;;;;;;5.70;3.67;;;;;;;-4.26;61.93;97728.06;5075509;28;20128;-61
2023/02/07 01:45:03;;;;;;;6.15;4.55;;;;;;;-4.24;61.76;97728.13;5075625;28;20056;-62
2023/02/07 01:47:32;;;;;;;6.90;4.50;;;;;;;-4.21;61.84;97743.59;5075467;28;20040;-61
2023/02/07 01:49:59;;;;;;;5.55;4.00;;;;;;;-4.25;61.67;97742.56;5075383;28;20480;-60
2023/02/07 01:52:32;;;;;;;9.85;4.15;;;;;;;-4.26;61.94;97742.50;5075332;28;20417;-61
2023/02/07 01:55:02;;;;;;;8.40;4.65;;;;;;;-4.24;61.61;97746.88;5075209;28;20040;-61
2023/02/07 01:57:30;;;;;;;5.78;4.55;;;;;;;-4.23;62.10;97740.97;5075260;28;20048;-62
2023/02/07 01:59:59;;;;;;;7.90;4.45;;;;;;;-4.10;61.29;97749.97;5075203;28;20044;-62
2023/02/07 02:02:31;;;;;;;6.32;3.95;;;;;;;-4.08;60.78;97750.94;5075144;28;20087;-61
2023/02/07 02:04:59;;;;;;;8.55;5.50;;;;;;;-4.11;61.24;97742.25;5075110;28;20518;-61
2023/02/07 02:07:31;;;;;;;8.18;4.63;;;;;;;-4.04;61.32;97743.38;5075048;28;20053;-61
2023/02/07 02:09:59;;;;;;;7.00;4.53;;;;;;;-4.06;61.27;97735.66;5074999;28;20044;-61
2023/02/07 02:12:39;;;;;;;8.20;4.80;;;;;;;-3.98;61.52;97746.16;5074676;28;20063;-61
2023/02/07 02:15:19;;;;;;;6.85;4.80;;;;;;;-4.04;61.40;97741.69;5074799;28;20053;-61
2023/02/07 02:18:11;;;;;;;9.03;5.10;;;;;;;-4.12;61.56;97749.03;5075004;28;20072;-61
2023/02/07 02:21:20;;;;;;;7.43;4.72;;;;;;;-4.02;61.43;97752.84;5074723;28;20041;-61
2023/02/07 02:24:06;;;;;;;8.38;4.22;;;;;;;-4.03;62.21;97752.78;4993382;28;20113;-62
2023/02/07 02:26:57;;;;;;;7.90;4.43;;;;;;;-4.00;62.47;97756.34;5065605;28;20052;-62
2023/02/07 02:29:57;;;;;;;6.25;4.10;;;;;;;-3.91;62.56;97760.94;5074610;28;20076;-62
2023/02/07 02:33:12;;;;;;;10.88;5.00;;;;;;;-3.94;63.00;97763.38;5048684;28;20090;-61
2023/02/07 02:35:51;;;;;;;5.82;4.47;;;;;;;-3.96;63.09;97767.56;5012744;28;20046;-62
2023/02/07 02:38:26;;;;;;;8.13;5.10;;;;;;;-3.95;63.81;97759.94;5064697;28;20494;-62
2023/02/07 02:41:00;;;;;;;7.40;5.13;;;;;;;-3.92;64.19;97760.88;5074467;28;20045;-61
2023/02/07 02:43:36;;;;;;;8.35;5.47;;;;;;;-3.90;64.90;97759.25;5074266;28;20052;-62
2023/02/07 02:46:09;;;;;;;8.98;4.68;;;;;;;-3.87;65.05;97769.59;5074366;28;20053;-62
2023/02/07 02:48:37;;;;;;;12.00;6.35;;;;;;;-3.94;66.27;97756.56;5073451;28;20384;-62
2023/02/07 02:51:06;;;;;;;12.02;6.82;;;;;;;-3.87;66.37;97756.81;5074201;28;20091;-62
2023/02/07 02:53:33;;;;;;;12.02;7.07;;;;;;;-3.83;67.21;97745.88;5074183;28;20044;-61
2023/02/07 02:56:36;;;;;;;7.78;4.95;;;;;;;-3.85;67.34;97757.75;5073926;28;20044;-62
2023/02/07 02:59:30;;;;;;;9.85;5.80;;;;;;;-3.79;67.46;97760.56;5051611;28;20529;-62
2023/02/07 03:02:09;;;;;;;7.95;5.22;;;;;;;-3.81;67.84;97757.03;5073892;28;20123;-62
2023/02/07 03:05:02;;;;;;;8.45;5.28;;;;;;;-3.73;67.51;97755.66;5073971;28;20545;-61
2023/02/07 03:07:44;;;;;;;7.90;5.03;;;;;;;-3.69;67.87;97766.88;5073991;28;20148;-62
2023/02/07 03:10:25;;;;;;;9.05;5.13;;;;;;;-3.73;68.16;97759.91;5073825;28;20041;-62
2023/02/07 03:12:58;;;;;;;6.82;4.72;;;;;;;-3.75;67.95;97767.53;5073551;28;20402;-63
2023/02/07 03:15:36;;;;;;;7.65;5.00;;;;;;;-3.81;68.56;97774.94;5073760;28;20049;-62
2023/02/07 03:18:10;;;;;;;8.32;5.95;;;;;;;-3.79;68.56;97775.91;5073753;28;20048;-61
2023/02/07 03:20:43;;;;;;;8.40;5.45;;;;;;;-3.76;70.08;97780.25;5073665;28;20048;-62
2023/02/07 03:23:15;;;;;;;8.60;5.03;;;;;;;-3.84;71.00;97775.72;5073609;28;20165;-62
2023/02/07 03:25:44;;;;;;;6.75;4.75;;;;;;;-3.85;71.02;97786.72;5073551;28;20135;-61
2023/02/07 03:28:14;;;;;;;8.30;5.53;;;;;;;-3.83;71.52;97779.13;5073446;28;20048;-62
2023/02/07 03:30:44;;;;;;;7.68;5.25;;;;;;;-3.79;71.93;97785.25;5073574;28;20076;-61
2023/02/07 03:33:13;;;;;;;7.93;5.10;;;;;;;-3.97;71.88;97788.84;5073410;28;20048;-61
2023/02/07 03:35:46;;;;;;;9.75;5.78;;;;;;;-4.01;72.14;97784.41;5073338;28;20088;-61
2023/02/07 03:38:16;;;;;;;9.60;6.13;;;;;;;-4.01;72.40;97779.31;5073494;28;20498;-62
2023/02/07 03:40:46;;;;;;;8.50;5.50;;;;;;;-3.96;71.99;97782.91;5073383;28;20461;-61
2023/02/07 03:43:16;;;;;;;9.65;5.05;;;;;;;-4.08;70.83;97775.63;5073269;28;20041;-62
2023/02/07 03:45:44;;;;;;;9.00;5.50;;;;;;;-4.08;70.64;97771.38;5073258;28;20520;-61
2023/02/07 03:48:13;;;;;;;9.00;4.53;;;;;;;-4.11;71.22;97771.25;5073163;28;20045;-62
2023/02/07 03:50:41;;;;;;;8.32;5.55;;;;;;;-4.03;70.91;97776.69;5073164;28;20048;-61
2023/02/07 03:53:08;;;;;;;8.57;5.22;;;;;;;-3.99;70.94;97778.53;5073250;28;20079;-60
2023/02/07 03:55:37;;;;;;;9.18;5.22;;;;;;;-4.01;71.00;97775.03;5073032;28;20270;-61
2023/02/07 03:58:07;;;;;;;8.03;4.90;;;;;;;-4.09;70.64;97779.84;5073109;28;20479;-61
2023/02/07 04:00:34;;;;;;;6.83;4.87;;;;;;;-4.12;71.63;97777.16;5073095;28;20044;-61
2023/02/07 04:03:02;;;;;;;7.13;4.53;;;;;;;-4.19;71.49;97775.16;5073203;28;20044;-62
2023/02/07 04:05:29;;;;;;;8.43;5.45;;;;;;;-4.21;71.76;97782.78;5073044;28;20052;-60
2023/02/07 04:07:56;;;;;;;10.50;5.63;;;;;;;-4.21;71.18;97776.81;5073177;28;20055;-61
2023/02/07 04:10:24;;;;;;;7.00;4.25;;;;;;;-4.37;69.67;97788.09;5073074;28;20044;-61
2023/02/07 04:12:52;;;;;;;7.95;5.13;;;;;;;-4.51;69.62;97785.84;5072739;28;20430;-61
2023/02/07 04:15:20;;;;;;;6.95;4.20;;;;;;;-4.57;69.83;97783.03;5072869;28;20048;-62
2023/02/07 04:17:47;;;;;;;6.53;4.43;;;;;;;-4.59;68.88;97788.06;5072962;28;20076;-62
2023/02/07 04:20:15;;;;;;;8.07;5.20;;;;;;;-4.61;69.21;97782.03;5072854;28;20048;-61
2023/02/07 04:22:42;;;;;;;8.00;4.45;;;;;;;-4.61;69.61;97786.28;5072838;28;20045;-62
2023/02/07 04:25:09;;;;;;;9.30;5.05;;;;;;;-4.65;68.79;97772.50;5072853;28;20052;-62
2023/02/07 04:27:37;;;;;;;7.78;4.60;;;;;;;-4.59;68.51;97785.53;5072831;28;20499;-61
2023/02/07 04:30:07;;;;;;;8.85;5.03;;;;;;;-4.55;68.70;97790.75;5072687;28;20143;-61
2023/02/07 04:32:34;;;;;;;7.10;4.32;;;;;;;-4.50;68.27;97792.69;5072764;28;20049;-61
2023/02/07 04:35:01;;;;;;;6.05;4.05;;;;;;;-4.54;67.42;97803.59;5072785;28;20048;-62
2023/02/07 04:37:28;;;;;;;6.10;4.05;;;;;;;-4.54;67.30;97803.59;5072644;28;20121;-62
2023/02/07 04:39:56;;;;;;;7.10;4.28;;;;;;;-4.58;65.89;97801.69;5072761;28;20048;-62
2023/02/07 04:42:23;;;;;;;7.97;4.80;;;;;;;-4.66;65.97;97803.06;5072651;28;20099;-61
2023/02/07 04:44:51;;;;;;;6.68;4.65;;;;;;;-4.67;66.56;97817.50;5072655;28;20056;-61
2023/02/07 04:47:19;;;;;;;8.50;4.72;;;;;;;-4.65;65.68;97812.47;5072637;28;20044;-62
2023/02/07 04:49:47;;;;;;;8.30;5.55;;;;;;;-4.73;65.18;97822.38;5072548;28;20127;-61
2023/02/07 04:52:14;;;;;;;6.95;5.10;;;;;;;-4.71;64.86;97819.09;5072674;28;20074;-61
2023/02/07 04:54:41;;;;;;;8.98;4.38;;;;;;;-4.67;64.55;97817.50;5072673;28;20052;-61
2023/02/07 04:57:09;;;;;;;7.05;4.68;;;;;;;-4.63;64.83;97818.53;5072450;28;20044;-61
2023/02/07 04:59:36;;;;;;;6.47;4.30;;;;;;;-4.80;64.41;97818.69;5072510;28;20053;-62
2023/02/07 05:02:04;;;;;;;6.45;4.30;;;;;;;-4.75;63.55;97814.66;5072681;28;20044;-61
2023/02/07 05:04:32;;;;;;;6.97;4.63;;;;;;;-4.85;64.25;97809.97;5072630;28;20063;-62
2023/02/07 05:07:00;;;;;;;6.32;4.47;;;;;;;-4.87;64.24;97816.66;5072464;28;20052;-61
2023/02/07 05:09:27;;;;;;;7.75;4.88;;;;;;;-4.87;64.35;97814.13;5072411;28;20486;-62
2023/02/07 05:11:54;;;;;;;9.27;4.97;;;;;;;-4.86;64.27;97824.41;5073122;28;20080;-61
2023/02/07 05:14:21;;;;;;;7.43;4.80;;;;;;;-4.82;63.54;97822.84;5075964;28;20133;-62
2023/02/07 05:16:48;;;;;;;8.25;5.03;;;;;;;-4.79;63.78;97822.13;5075930;28;20480;-62
2023/02/07 05:19:15;;;;;;;8.77;4.53;;;;;;;-4.72;63.78;97816.47;5075965;28;20461;-62
2023/02/07 05:21:44;;;;;;;7.45;3.95;;;;;;;-4.72;62.79;97819.00;5075892;28;20049;-62
2023/02/07 05:24:11;;;;;;;7.28;4.93;;;;;;;-4.74;62.63;97820.63;5075969;28;20094;-61
2023/02/07 05:26:38;;;;;;;8.63;4.65;;;;;;;-4.71;62.67;97823.31;5075964;28;20045;-62
2023/02/07 05:29:05;;;;;;;7.63;4.53;;;;;;;-4.70;62.70;97831.03;5076008;28;20047;-62
2023/02/07 05:34:17;;;;;;;7.97;4.38;;;;;;;-4.67;62.51;97827.72;5075733;28;20129;-62
2023/02/07 05:36:45;;;;;;;6.35;4.32;;;;;;;-4.63;62.31;97834.75;5075591;28;20051;-61
2023/02/07 05:39:12;;;;;;;4.72;3.22;;;;;;;-4.61;61.38;97838.22;5075612;28;20052;-62
2023/02/07 05:41:39;;;;;;;7.70;4.68;;;;;;;-4.73;61.44;97845.38;5075586;28;20048;-61
2023/02/07 05:44:07;;;;;;;7.25;4.18;;;;;;;-4.77;61.00;97840.91;5075573;28;20053;-61
2023/02/07 05:46:34;;;;;;;7.63;4.63;;;;;;;-4.83;61.19;97844.06;5075578;28;20137;-61
2023/02/07 05:49:01;;;;;;;7.18;4.57;;;;;;;-4.82;60.80;97845.81;5075413;28;20049;-61
2023/02/07 05:51:28;;;;;;;7.22;4.03;;;;;;;-4.76;61.10;97835.88;5075369;28;20552;-62
2023/02/07 05:53:56;;;;;;;7.35;4.25;;;;;;;-4.67;60.68;97837.94;5075321;28;20045;-62
2023/02/07 05:56:24;;;;;;;6.72;4.47;;;;;;;-4.65;60.76;97849.13;5075227;28;20128;-61
2023/02/07 05:58:51;;;;;;;7.32;4.18;;;;;;;-4.72;60.17;97847.09;5075322;28;20449;-61
2023/02/07 06:01:18;;;;;;;6.22;4.10;;;;;;;-4.73;60.58;97841.13;5075170;28;20045;-61
2023/02/07 06:03:45;;;;;;;9.98;4.20;;;;;;;-4.78;61.10;97849.38;5075238;28;20482;-62
2023/02/07 06:06:12;;;;;;;7.68;4.43;;;;;;;-4.79;60.48;97855.31;5075113;28;20509;-61
2023/02/07 06:08:39;;;;;;;6.82;4.28;;;;;;;-4.74;60.01;97849.59;5075099;28;20076;-61
2023/02/07 06:11:08;;;;;;;7.57;4.68;;;;;;;-4.77;59.06;97853.69;5075202;28;20403;-62
2023/02/07 06:13:35;;;;;;;5.93;4.22;;;;;;;-4.65;59.29;97850.78;5074752;28;20102;-62
2023/02/07 06:16:02;;;;;;;7.50;4.30;;;;;;;-4.62;58.51;97858.59;5074857;28;20040;-62
2023/02/07 06:18:29;;;;;;;7.18;4.20;;;;;;;-4.59;57.24;97864.72;5074791;28;20051;-62
2023/02/07 06:20:56;;;;;;;7.65;4.55;;;;;;;-4.57;56.41;97857.13;5074802;28;20044;-61
2023/02/07 06:23:23;;;;;;;5.85;4.07;;;;;;;-4.58;56.14;97851.13;5073723;28;20128;-60
2023/02/07 06:25:50;;;;;;;8.30;4.85;;;;;;;-4.40;56.23;97862.09;5074768;28;20449;-62
2023/02/07 06:28:19;;;;;;;5.63;2.95;;;;;;;-4.27;56.00;97858.34;5074729;28;20523;-61
2023/02/07 06:30:46;;;;;;;7.03;3.75;;;;;;;-4.27;55.35;97855.78;5074681;28;20052;-61
2023/02/07 06:33:14;;;;;;;7.07;4.25;;;;;;;-4.33;54.72;97844.50;5074482;28;20123;-61
2023/02/07 06:35:46;;;;;;;5.75;4.18;;;;;;;-4.31;55.58;97853.09;5074466;28;20052;-62
2023/02/07 06:38:13;;;;;;;6.97;4.32;;;;;;;-4.21;55.44;97861.16;5074360;28;20045;-61
2023/02/07 06:40:40;;;;;;;8.52;3.50;;;;;;;-3.94;54.29;97858.84;5074416;28;20049;-61
2023/02/07 06:43:08;;;;;;;7.50;4.28;;;;;;;-3.82;53.49;97858.47;5074480;28;20048;-62
2023/02/07 06:45:37;;;;;;;6.53;4.40;;;;;;;-3.66;52.91;97863.34;5074426;28;20143;-61
2023/02/07 06:48:04;;;;;;;5.07;3.83;;;;;;;-3.63;53.27;97850.66;5074305;28;20090;-62
2023/02/07 06:50:31;;;;;;;9.15;4.10;;;;;;;-3.52;52.92;97858.75;5074248;28;20048;-62
2023/02/07 06:53:00;;;;;;;6.65;3.15;;;;;;;-3.24;51.94;97860.72;5074295;28;20049;-62
2023/02/07 06:55:29;;;;;;;5.93;3.78;;;;;;;-2.56;51.76;97861.44;5074150;28;20173;-62
2023/02/07 06:57:56;;;;;;;5.50;3.75;;;;;;;-1.33;48.34;97864.56;5073999;28;20413;-62
2023/02/07 07:00:24;;;;;;;5.68;3.90;;;;;;;-0.29;46.12;97861.44;5074002;28;20063;-61
2023/02/07 07:02:53;;;;;;;4.72;3.67;;;;;;;0.66;43.08;97857.75;5073932;28;20119;-62
2023/02/07 07:05:20;;;;;;;4.25;3.53;;;;;;;1.17;42.27;97860.53;5074004;28;20044;-62
2023/02/07 07:07:48;;;;;;;6.60;3.80;;;;;;;2.04;40.25;97851.81;5073875;28;20513;-63
2023/02/07 07:10:16;;;;;;;5.68;3.70;;;;;;;2.33;39.06;97855.72;5073835;28;20040;-62
2023/02/07 07:12:44;;;;;;;5.35;3.80;;;;;;;2.37;38.76;97862.69;5073414;28;20045;-62
2023/02/07 07:15:11;;;;;;;5.63;3.95;;;;;;;2.96;38.30;97853.22;5073846;28;20044;-62
2023/02/07 07:17:38;;;;;;;4.72;3.60;;;;;;;3.59;37.52;97851.38;5073644;28;20452;-62
2023/02/07 07:20:08;;;;;;;4.55;3.90;;;;;;;3.53;35.78;97853.03;5073650;28;20636;-62
2023/02/07 07:22:36;;;;;;;5.28;3.92;;;;;;;3.07;36.72;97866.28;5073560;28;20064;-62
2023/02/07 07:25:04;;;;;;;5.00;3.75;;;;;;;3.03;36.98;97851.56;5073578;28;20048;-62
2023/02/07 07:27:31;;;;;;;5.20;3.92;;;;;;;3.14;36.88;97857.78;5073477;28;20048;-62
2023/02/07 07:29:59;;;;;;;6.85;4.13;;;;;;;3.43;35.45;97855.53;5073632;28;20140;-63
2023/02/07 07:32:27;;;;;;;5.93;4.40;;;;;;;3.66;35.93;97842.81;5073479;28;20048;-61
2023/02/07 07:34:55;;;;;;;4.93;3.88;;;;;;;4.58;34.69;97855.72;5073045;28;20048;-62
2023/02/07 07:37:24;;;;;;;6.55;4.18;;;;;;;4.97;33.30;97850.75;5073275;28;20052;-62
2023/02/07 07:39:52;;;;;;;6.47;3.75;;;;;;;5.80;32.42;97859.72;5073332;28;20127;-62
2023/02/07 07:42:19;;;;;;;5.05;3.90;;;;;;;5.65;32.88;97852.75;5073271;28;20064;-63
2023/02/07 07:44:47;;;;;;;5.65;4.05;;;;;;;6.61;31.27;97867.63;5073446;28;20045;-62
2023/02/07 07:47:15;;;;;;;5.28;3.92;;;;;;;7.58;29.34;97859.53;5073330;28;20070;-63
2023/02/07 07:49:42;;;;;;;5.53;3.72;;;;;;;6.68;29.50;97853.72;5073189;28;20049;-62
2023/02/07 07:52:10;;;;;;;5.60;3.70;;;;;;;6.06;31.19;97849.41;5073225;28;20119;-62
2023/02/07 07:54:39;;;;;;;6.78;4.40;;;;;;;4.82;32.46;97857.59;5073270;28;20044;-62
2023/02/07 07:57:07;;;;;;;5.60;4.45;;;;;;;3.48;35.12;97864.19;5073114;28;20041;-61
2023/02/07 07:59:34;;;;;;;5.43;4.15;;;;;;;2.46;36.62;97872.28;5073182;28;20063;-63
2023/02/07 08:02:01;;;;;;;8.38;4.10;;;;;;;2.00;38.87;97865.53;5073032;28;20045;-62
2023/02/07 08:04:29;;;;;;;5.68;4.07;;;;;;;1.94;38.47;97866.28;5073084;28;20045;-63
2023/02/07 08:06:59;;;;;;;5.30;3.60;;;;;;;2.00;39.04;97871.56;5073085;28;20044;-62
2023/02/07 08:09:28;;;;;;;5.95;4.28;;;;;;;2.39;38.95;97867.06;5073060;28;20048;-63
2023/02/07 08:11:57;;;;;;;5.53;3.88;;;;;;;2.64;38.93;97864.84;5073018;28;20049;-63
2023/02/07 08:14:24;;;;;;;6.95;4.65;;;;;;;2.50;38.06;97854.28;5072730;28;20098;-62
2023/02/07 08:16:52;;;;;;;7.43;4.20;;;;;;;2.37;39.54;97854.94;5072907;28;20135;-63
2023/02/07 08:19:19;;;;;;;5.00;3.83;;;;;;;2.43;39.38;97852.44;5072898;28;20063;-63
2023/02/07 08:21:46;;;;;;;5.43;3.72;;;;;;;2.14;39.12;97863.19;5072964;28;20479;-62
2023/02/07 08:24:14;;;;;;;5.93;4.47;;;;;;;2.36;39.17;97854.09;5072794;28;20040;-62
2023/02/07 08:26:41;;;;;;;5.07;3.90;;;;;;;2.48;38.59;97845.66;5072798;28;20483;-63
2023/02/07 08:29:09;;;;;;;7.13;4.40;;;;;;;2.57;39.13;97849.22;5072869;28;20046;-62
2023/02/07 08:31:36;;;;;;;5.95;4.03;;;;;;;2.16;38.67;97846.00;5072810;28;20422;-62
2023/02/07 08:34:06;;;;;;;6.40;4.07;;;;;;;1.64;39.95;97849.41;5072800;28;20442;-63
2023/02/07 08:36:33;;;;;;;6.03;4.20;;;;;;;1.19;42.77;97845.97;5072683;28;20131;-61
2023/02/07 08:39:01;;;;;;;6.47;4.40;;;;;;;1.31;42.36;97850.50;5072652;28;20044;-62
2023/02/07 08:41:28;;;;;;;5.03;3.92;;;;;;;1.11;41.69;97844.09;5072655;28;20548;-62
2023/02/07 08:43:55;;;;;;;6.10;4.40;;;;;;;1.03;42.96;97852.50;5072757;28;20453;-62
2023/02/07 08:46:24;;;;;;;5.75;4.10;;;;;;;0.87;42.57;97853.03;5072724;28;20040;-63
2023/02/07 08:48:51;;;;;;;6.05;4.15;;;;;;;0.63;43.32;97856.81;5076569;28;20133;-63
2023/02/07 08:51:20;;;;;;;6.43;4.30;;;;;;;0.40;44.15;97851.16;5076490;28;20045;-62
2023/02/07 08:53:47;;;;;;;5.88;4.13;;;;;;;0.48;44.69;97849.59;5076474;28;20097;-62
2023/02/07 08:56:14;;;;;;;6.90;4.60;;;;;;;0.49;45.01;97855.66;5076484;28;20052;-62
2023/02/07 08:58:41;;;;;;;6.03;4.15;;;;;;;0.42;44.69;97851.19;5076335;28;20049;-61
2023/02/07 09:01:11;;;;;;;6.20;4.38;;;;;;;0.31;44.46;97861.22;5076377;28;20564;-62
2023/02/07 09:03:41;;;;;;;5.88;4.47;;;;;;;0.01;44.22;97857.06;5076388;28;20135;-62
2023/02/07 09:06:09;;;;;;;6.83;4.03;;;;;;;-0.50;45.25;97854.91;5076420;28;20124;-62
2023/02/07 09:08:37;;;;;;;5.68;4.22;;;;;;;-0.60;47.53;97855.47;5076205;28;20131;-61
2023/02/07 09:11:05;;;;;;;6.30;4.38;;;;;;;-0.89;46.77;97861.53;5076192;28;20047;-62
2023/02/07 09:13:32;;;;;;;6.65;4.45;;;;;;;-0.86;46.07;97868.47;5075897;28;20052;-62
2023/02/07 09:15:59;;;;;;;8.20;4.95;;;;;;;-1.05;47.69;97867.94;5076110;28;20102;-62
2023/02/07 09:18:27;;;;;;;25.38;15.73;;;;;;;-0.91;47.99;97861.50;5075999;28;20140;-62
2023/02/07 09:20:56;;;;;;;14.73;8.77;;;;;;;-0.86;49.06;97853.94;5076049;28;20444;-61
2023/02/07 09:23:23;;;;;;;6.20;4.43;;;;;;;-0.99;48.20;97856.97;5076067;28;20117;-61
2023/02/07 09:25:52;;;;;;;7.18;4.05;;;;;;;-1.09;49.16;97860.97;5076051;28;20048;-62
2023/02/07 09:28:22;;;;;;;8.35;4.60;;;;;;;-1.36;49.21;97851.63;5075842;28;20041;-62
2023/02/07 09:30:49;;;;;;;7.40;4.38;;;;;;;-1.50;48.83;97852.06;5075862;28;20441;-62
2023/02/07 09:33:17;;;;;;;6.85;4.47;;;;;;;-1.58;49.96;97850.94;5075775;28;20553;-61
2023/02/07 09:35:46;;;;;;;6.20;4.63;;;;;;;-1.54;51.35;97852.78;5075839;28;20392;-61
2023/02/07 09:38:20;;;;;;;7.60;4.15;;;;;;;-1.51;51.17;97850.28;5075680;28;20410;-62
2023/02/07 09:40:50;;;;;;;7.55;3.50;;;;;;;-1.59;49.61;97842.38;5075760;28;20127;-61
2023/02/07 09:43:29;;;;;;;7.75;4.80;;;;;;;-1.67;50.67;97848.94;5075673;28;20040;-61
2023/02/07 09:46:00;;;;;;;5.72;4.45;;;;;;;-1.55;49.80;97840.75;5075710;28;20044;-62
2023/02/07 09:48:36;;;;;;;8.05;4.03;;;;;;;-1.60;49.64;97844.91;5075585;28;20052;-61
2023/02/07 09:51:06;;;;;;;7.22;4.32;;;;;;;-1.51;50.43;97844.31;5075389;28;20057;-61
2023/02/07 09:53:41;;;;;;;8.05;4.82;;;;;;;-1.38;52.48;97845.56;5075573;28;20044;-62
2023/02/07 09:56:09;;;;;;;9.00;5.90;;;;;;;-1.26;51.59;97833.09;5075295;28;20124;-62
2023/02/07 09:58:42;;;;;;;7.30;4.20;;;;;;;-1.09;51.10;97841.28;5074875;28;20053;-62
2023/02/07 10:01:14;;;;;;;16.73;9.82;;;;;;;-0.99;51.29;97834.72;5075272;28;20049;-62
2023/02/07 10:03:46;;;;;;;6.82;4.70;;;;;;;-0.75;49.79;97831.09;5075205;28;20056;-62
2023/02/07 10:06:22;;;;;;;6.78;4.50;;;;;;;-0.78;47.83;97823.31;5075123;28;20051;-62
2023/02/07 10:08:55;;;;;;;6.05;4.20;;;;;;;-0.78;49.48;97829.31;5075167;28;20071;-62
2023/02/07 10:11:33;;;;;;;5.82;4.28;;;;;;;-0.69;48.76;97812.41;5075092;28;20059;-62
2023/02/07 10:14:13;;;;;;;6.50;4.00;;;;;;;-0.74;49.97;97820.00;5074057;28;20041;-62
2023/02/07 10:16:58;;;;;;;7.10;4.50;;;;;;;-0.92;51.09;97816.09;5073916;28;20044;-62
2023/02/07 10:19:38;;;;;;;5.93;3.92;;;;;;;-1.13;51.60;97811.19;5073874;28;20052;-61
2023/02/07 10:22:16;;;;;;;5.28;4.03;;;;;;;-1.22;52.56;97811.81;5073917;28;20072;-62
2023/02/07 10:25:00;;;;;;;7.78;4.55;;;;;;;-1.19;51.70;97817.03;5073810;28;20419;-62
2023/02/07 10:27:31;;;;;;;9.35;6.00;;;;;;;-1.27;53.50;97808.22;5073701;28;20048;-62
2023/02/07 10:30:09;;;;;;;8.40;4.55;;;;;;;-1.46;53.02;97820.53;5073814;28;20478;-61
2023/02/07 10:32:39;;;;;;;11.65;6.78;;;;;;;-1.51;54.96;97816.06;5073765;28;20115;-61
2023/02/07 10:35:16;;;;;;;8.20;4.60;;;;;;;-1.38;54.72;97810.47;5073668;28;20048;-61
2023/02/07 10:37:45;;;;;;;18.92;12.63;;;;;;;-1.21;54.77;97810.97;5073383;28;20546;-62
2023/02/07 10:40:22;;;;;;;24.83;16.40;;;;;;;-0.93;53.57;97806.63;5073536;28;20044;-62
2023/02/07 10:42:54;;;;;;;11.40;5.22;;;;;;;-0.54;53.26;97794.81;5073492;28;20052;-62
2023/02/07 10:45:23;;;;;;;5.68;3.70;;;;;;;-0.27;52.09;97800.66;5073448;28;20640;-62
2023/02/07 10:47:50;;;;;;;6.50;4.28;;;;;;;-0.04;50.39;97803.78;5073407;28;20430;-62
2023/02/07 10:50:19;;;;;;;6.10;4.53;;;;;;;-0.04;49.81;97796.06;5073376;28;20084;-62
2023/02/07 10:52:51;;;;;;;7.13;4.57;;;;;;;0.23;49.69;97796.66;5073408;28;20052;-62
2023/02/07 10:55:33;;;;;;;6.68;4.68;;;;;;;0.10;49.16;97796.41;5073287;28;20518;-61
2023/02/07 10:58:00;;;;;;;7.53;4.70;;;;;;;-0.07;49.91;97798.56;5073212;28;20135;-62
2023/02/07 11:00:29;;;;;;;6.90;5.32;;;;;;;-0.17;49.13;97804.31;5073205;28;20049;-61
2023/02/07 11:03:02;;;;;;;7.75;5.53;;;;;;;-0.31;50.31;97799.69;5073244;28;20547;-61
2023/02/07 11:05:33;;;;;;;6.40;4.47;;;;;;;-0.22;50.20;97800.72;5073172;28;20052;-62
2023/02/07 11:08:02;;;;;;;6.80;3.97;;;;;;;-0.23;49.30;97812.75;5073139;28;20045;-62
2023/02/07 11:10:35;;;;;;;6.03;3.92;;;;;;;-0.47;47.75;97802.69;5072289;28;20083;-62
2023/02/07 11:13:03;;;;;;;6.80;4.43;;;;;;;-0.69;48.46;97802.13;5028808;28;1266596;-61
2023/02/07 11:15:38;;;;;;;8.88;4.97;;;;;;;-0.78;48.83;97793.31;5073773;28;20490;-63
2023/02/07 11:18:06;;;;;;;20.17;12.00;;;;;;;-0.69;50.11;97791.84;5073704;28;20094;-62
2023/02/07 11:20:37;;;;;;;8.65;5.35;;;;;;;-0.55;49.47;97794.75;5073861;28;20080;-62
2023/02/07 11:23:10;;;;;;;5.57;4.32;;;;;;;-0.44;49.96;97782.19;5073867;28;20045;-61
2023/02/07 11:25:43;;;;;;;6.28;4.10;;;;;;;-0.53;49.20;97775.13;5073706;28;20048;-62
2023/02/07 11:28:18;;;;;;;5.50;3.90;;;;;;;-0.61;51.12;97771.50;5073576;28;20049;-62
2023/02/07 11:30:46;;;;;;;6.55;4.07;;;;;;;-0.42;49.25;97773.69;5073550;28;20048;-61
2023/02/07 11:33:19;;;;;;;4.60;3.30;;;;;;;-0.21;48.37;97764.75;5073519;28;20048;-61
2023/02/07 11:36:03;;;;;;;7.32;4.35;;;;;;;-0.42;48.03;97763.41;5073586;28;20482;-62
2023/02/07 11:38:31;;;;;;;6.88;4.47;;;;;;;-0.27;49.21;97765.47;5073286;28;20114;-61
2023/02/07 11:41:05;;;;;;;6.47;4.40;;;;;;;-0.07;47.61;97765.09;5073348;28;20049;-62
2023/02/07 11:43:34;;;;;;;8.35;5.78;;;;;;;0.17;48.59;97753.66;5073393;28;20401;-62
2023/02/07 11:46:09;;;;;;;5.65;3.67;;;;;;;0.22;46.73;97754.63;5073385;28;20056;-62
2023/02/07 11:48:42;;;;;;;10.15;4.97;;;;;;;0.40;46.66;97755.00;5073350;28;20075;-61
2023/02/07 11:51:17;;;;;;;5.32;3.67;;;;;;;0.34;44.08;97754.03;5073229;28;20737;-61